Time;durP1;ratioP1;P1;durP2;ratioP2;P2;SDS_P1;SDS_P2;PMS_P1;PMS_P2;Temp;Humidity;BMP_temperature;BMP_pressure;BME280_temperature;BME280_humidity;BME280_pressure;Samples;Min_cycle;Max_cycle;Signal;HPM_P1;HPM_P2
2023/03/24 00:01:56;;;;;;;;;1.50;1.00;;;;;13.47;65.04;97917.88;4904463;28;102409;-73
2023/03/24 00:04:23;;;;;;;;;1.00;1.00;;;;;13.48;64.98;97924.97;4898290;28;102205;-72
2023/03/24 00:06:51;;;;;;;;;3.00;1.00;;;;;13.49;64.79;97907.63;4913200;28;102436;-72
2023/03/24 00:09:18;;;;;;;;;1.00;1.00;;;;;13.50;64.33;97907.41;4908336;28;104068;-73
2023/03/24 00:11:45;;;;;;;;;1.00;1.00;;;;;13.52;64.43;97910.69;4927112;28;102270;-73
2023/03/24 00:14:12;;;;;;;;;1.00;1.00;;;;;13.54;64.61;97908.56;4907766;28;103486;-72
2023/03/24 00:16:44;;;;;;;;;1.75;1.25;;;;;13.57;64.66;97913.53;4914653;28;105351;-73
2023/03/24 00:19:13;;;;;;;;;2.25;2.00;;;;;13.56;64.82;97900.16;4908612;28;104148;-72
2023/03/24 00:21:41;;;;;;;;;3.00;1.00;;;;;13.61;64.93;97908.44;4916995;28;102611;-72
2023/03/24 00:24:10;;;;;;;;;1.00;1.00;;;;;13.63;64.99;97903.59;4909475;28;102313;-73
2023/03/24 00:26:39;;;;;;;;;2.00;2.00;;;;;13.62;64.67;97904.66;4910567;28;102053;-72
2023/03/24 00:29:12;;;;;;;;;1.75;1.50;;;;;13.64;65.16;97894.41;4902027;28;104436;-71
2023/03/24 00:31:39;;;;;;;;;2.50;2.00;;;;;13.64;64.89;97900.66;4904723;28;105068;-72
2023/03/24 00:34:07;;;;;;;;;3.00;3.00;;;;;13.64;65.28;97891.69;4907647;28;102240;-72
2023/03/24 00:36:36;;;;;;;;;4.00;3.00;;;;;13.61;65.04;97886.69;4914588;28;101970;-72
2023/03/24 00:39:05;;;;;;;;;0.00;0.00;;;;;13.59;65.13;97897.00;4914393;28;104022;-72
2023/03/24 00:41:32;;;;;;;;;2.75;2.25;;;;;13.57;65.31;97901.81;4905872;28;102344;-72
2023/03/24 00:44:02;;;;;;;;;2.00;1.75;;;;;13.52;64.92;97888.13;4873956;28;103351;-73
2023/03/24 00:46:29;;;;;;;;;2.00;2.00;;;;;13.53;65.68;97889.78;4909102;28;102372;-73
2023/03/24 00:49:04;;;;;;;;;2.00;2.00;;;;;13.51;65.43;97887.28;4907206;28;104106;-73
2023/03/24 00:51:38;;;;;;;;;1.00;1.00;;;;;13.51;65.41;97872.91;4902619;28;102249;-72
2023/03/24 00:54:08;;;;;;;;;2.00;2.00;;;;;13.52;65.41;97866.41;4911547;28;103404;-73
2023/03/24 00:56:38;;;;;;;;;2.00;1.00;;;;;13.53;65.19;97873.50;4912292;28;102004;-73
2023/03/24 00:59:08;;;;;;;;;0.50;0.50;;;;;13.53;65.34;97871.59;4901821;28;104052;-72
2023/03/24 01:01:39;;;;;;;;;1.00;1.00;;;;;13.53;65.36;97862.63;4912356;28;102403;-72
2023/03/24 01:04:07;;;;;;;;;1.00;1.00;;;;;13.52;66.02;97859.06;4906496;28;102392;-74
2023/03/24 01:06:35;;;;;;;;;2.75;2.75;;;;;13.51;65.24;97856.63;4890504;28;102300;-72
2023/03/24 01:09:24;;;;;;;;;1.00;1.00;;;;;13.50;65.81;97849.53;4902509;28;105197;-72
2023/03/24 01:12:10;;;;;;;;;1.00;1.00;;;;;13.48;66.31;97847.03;4905875;28;102300;-72
2023/03/24 01:15:06;;;;;;;;;1.00;1.00;;;;;13.49;66.08;97853.31;4899381;28;102081;-71
2023/03/24 01:17:52;;;;;;;;;1.00;1.00;;;;;13.48;66.12;97843.50;4896944;28;102432;-73
2023/03/24 01:20:44;;;;;;;;;1.00;1.00;;;;;13.46;66.05;97841.03;4910023;28;107626;-72
2023/03/24 01:23:34;;;;;;;;;0.00;0.00;;;;;13.46;67.50;97843.75;4909549;28;102177;-72
2023/03/24 01:26:11;;;;;;;;;0.25;0.25;;;;;13.45;66.69;97842.09;4911660;28;101973;-73
2023/03/24 01:28:39;;;;;;;;;2.00;1.25;;;;;13.46;66.42;97834.78;4906766;28;102046;-73
2023/03/24 01:31:08;;;;;;;;;1.50;1.00;;;;;13.49;66.82;97847.88;4900680;28;104292;-73
2023/03/24 01:33:36;;;;;;;;;1.00;1.00;;;;;13.50;67.13;97839.50;4904401;28;102059;-72
2023/03/24 01:36:05;;;;;;;;;1.00;1.00;;;;;13.50;65.88;97841.38;4911904;28;102007;-73
2023/03/24 01:38:33;;;;;;;;;2.50;2.50;;;;;13.48;66.07;97838.91;4907221;28;102205;-73
2023/03/24 01:41:01;;;;;;;;;0.25;0.25;;;;;13.48;66.32;97847.03;4909399;28;104017;-72
2023/03/24 01:43:30;;;;;;;;;2.00;2.00;;;;;13.46;66.31;97840.22;4906285;28;102314;-72
2023/03/24 01:46:11;;;;;;;;;0.00;0.00;;;;;13.43;67.28;97836.06;4912508;28;102032;-72
2023/03/24 01:49:00;;;;;;;;;1.50;1.50;;;;;13.40;67.25;97842.81;4906949;28;103697;-72
2023/03/24 01:51:33;;;;;;;;;2.00;1.75;;;;;13.41;66.33;97832.78;4901528;28;108384;-71
2023/03/24 01:54:05;;;;;;;;;2.00;1.50;;;;;13.43;66.58;97830.63;4906158;28;102400;-73
2023/03/24 01:56:37;;;;;;;;;3.50;3.25;;;;;13.45;66.24;97828.53;4903905;28;102138;-73
2023/03/24 01:59:15;;;;;;;;;3.50;3.00;;;;;13.48;66.10;97832.63;4902631;28;102002;-72
2023/03/24 02:01:44;;;;;;;;;4.00;4.00;;;;;13.51;66.40;97838.41;4901137;28;103994;-72
2023/03/24 02:04:12;;;;;;;;;3.50;3.00;;;;;13.50;66.43;97836.78;4891620;28;102232;-73
2023/03/24 02:06:42;;;;;;;;;4.00;3.75;;;;;13.52;66.53;97829.19;4861787;28;102017;-73
2023/03/24 02:09:12;;;;;;;;;4.25;4.00;;;;;13.48;66.23;97827.19;4885648;28;102304;-72
2023/03/24 02:11:40;;;;;;;;;3.25;3.25;;;;;13.51;66.72;97829.47;4871966;28;104234;-72
2023/03/24 02:14:17;;;;;;;;;3.75;3.00;;;;;13.51;66.60;97838.41;4872109;28;102088;-73
2023/03/24 02:17:22;;;;;;;;;4.25;4.25;;;;;13.49;66.92;97831.56;4906185;28;103471;-73
2023/03/24 02:20:36;;;;;;;;;2.75;2.00;;;;;13.46;66.65;97824.75;4907265;28;102133;-72
2023/03/24 02:23:14;;;;;;;;;4.00;4.00;;;;;13.46;66.74;97830.19;4903032;28;108922;-74
2023/03/24 02:26:32;;;;;;;;;4.25;4.00;;;;;13.47;66.38;97825.53;4899077;28;102403;-73
2023/03/24 02:29:34;;;;;;;;;3.00;2.75;;;;;13.46;66.16;97821.19;4908063;28;103372;-73
2023/03/24 02:32:58;;;;;;;;;4.00;3.00;;;;;13.44;66.10;97820.59;4903005;28;102517;-73
2023/03/24 02:35:54;;;;;;;;;3.50;2.00;;;;;13.43;66.43;97814.34;4832952;28;108594;-73
2023/03/24 02:38:59;;;;;;;;;2.00;1.75;;;;;13.42;67.22;97811.88;4831963;28;102134;-73
2023/03/24 02:41:41;;;;;;;;;2.75;2.75;;;;;13.37;66.57;97810.69;4900429;28;102455;-73
2023/03/24 02:44:25;;;;;;;;;4.00;3.00;;;;;13.42;66.79;97811.88;4911155;28;102350;-73
2023/03/24 02:47:00;;;;;;;;;2.00;2.00;;;;;13.40;66.92;97810.22;4899922;28;108697;-73
2023/03/24 02:49:46;;;;;;;;;1.50;1.50;;;;;13.39;67.39;97805.84;4897245;28;102474;-72
2023/03/24 02:52:13;;;;;;;;;2.00;1.00;;;;;13.39;66.84;97803.13;4913863;28;102553;-73
2023/03/24 02:54:43;;;;;;;;;0.25;0.25;;;;;13.37;67.14;97802.53;4919345;28;102381;-73
2023/03/24 02:57:23;;;;;;;;;1.25;1.25;;;;;13.38;67.06;97795.22;4913742;28;104057;-71
2023/03/24 03:00:03;;;;;;;;;1.25;0.00;;;;;13.36;66.97;97806.34;4905315;28;102357;-71
2023/03/24 03:02:34;;;;;;;;;1.75;1.75;;;;;13.35;66.54;97807.38;4906959;28;102196;-72
2023/03/24 03:05:12;;;;;;;;;2.00;1.00;;;;;13.35;67.72;97799.25;4902934;28;102422;-72
2023/03/24 03:07:43;;;;;;;;;1.00;1.00;;;;;13.34;66.96;97794.88;4911877;28;104157;-72
2023/03/24 03:10:16;;;;;;;;;1.00;1.00;;;;;13.35;67.50;97804.69;4903915;28;102092;-72
2023/03/24 03:12:48;;;;;;;;;2.00;2.00;;;;;13.36;67.50;97797.34;4901176;28;104298;-72
2023/03/24 03:15:23;;;;;;;;;1.25;1.25;;;;;13.34;66.65;97802.19;4909242;28;101988;-72
2023/03/24 03:18:39;;;;;;;;;1.00;1.00;;;;;13.33;66.60;97798.66;4916000;28;104022;-72
2023/03/24 03:21:12;;;;;;;;;2.00;1.75;;;;;13.32;66.98;97790.75;4895063;28;101976;-72
2023/03/24 03:24:01;;;;;;;;;0.50;0.50;;;;;13.29;67.76;97792.03;4900330;28;102311;-72
2023/03/24 03:26:31;;;;;;;;;1.25;1.25;;;;;13.17;68.46;97777.66;4919038;28;106411;-72
2023/03/24 03:29:04;;;;;;;;;1.25;1.25;;;;;13.23;68.70;97793.00;4905049;28;108826;-71
2023/03/24 03:31:50;;;;;;;;;2.00;2.00;;;;;13.23;68.91;97792.19;4929484;28;102420;-72
2023/03/24 03:34:51;;;;;;;;;2.00;1.25;;;;;13.18;68.75;97792.06;4914206;28;102376;-73
2023/03/24 03:37:37;;;;;;;;;2.00;2.00;;;;;13.16;69.19;97796.91;4916066;28;102277;-72
2023/03/24 03:40:24;;;;;;;;;4.00;3.00;;;;;13.10;70.08;97792.41;4904720;28;108616;-72
2023/03/24 03:42:51;;;;;;;;;3.75;3.00;;;;;13.02;71.15;97785.41;4916088;28;102027;-73
2023/03/24 03:45:18;;;;;;;;;1.25;1.25;;;;;12.97;71.56;97782.59;4912983;28;102064;-72
2023/03/24 03:47:45;;;;;;;;;2.00;2.00;;;;;12.92;72.20;97790.63;4912818;28;102430;-72
2023/03/24 03:50:12;;;;;;;;;3.75;3.00;;;;;12.79;73.08;97780.81;4910415;28;104274;-72
2023/03/24 03:52:40;;;;;;;;;3.00;3.00;;;;;12.77;73.38;97793.81;4914071;28;103777;-72
2023/03/24 03:55:08;;;;;;;;;3.75;3.00;;;;;12.60;73.88;97775.75;4905516;28;102156;-72
2023/03/24 03:57:35;;;;;;;;;3.00;3.00;;;;;12.64;74.26;97780.47;4908403;28;102248;-72
2023/03/24 04:00:10;;;;;;;;;2.75;2.75;;;;;12.62;74.18;97788.00;4912301;28;104051;-72
2023/03/24 04:02:52;;;;;;;;;1.25;1.25;;;;;12.59;75.48;97790.34;4910432;28;102278;-72
2023/03/24 04:05:34;;;;;;;;;3.00;2.75;;;;;12.48;77.40;97787.38;4916379;28;102305;-72
2023/03/24 04:08:17;;;;;;;;;5.00;3.75;;;;;12.35;77.69;97784.88;4910478;28;102565;-72
2023/03/24 04:11:13;;;;;;;;;6.00;6.00;;;;;12.25;78.20;97781.91;4888594;28;104068;-72
2023/03/24 04:14:04;;;;;;;;;8.75;7.00;;;;;12.20;77.51;97792.63;4884636;28;102270;-72
2023/03/24 04:16:59;;;;;;;;;4.25;4.00;;;;;12.20;78.30;97791.81;4908102;28;101962;-71
2023/03/24 04:19:49;;;;;;;;;5.75;5.75;;;;;12.14;79.85;97792.72;4915528;28;102001;-71
2023/03/24 04:22:39;;;;;;;;;4.25;4.25;;;;;12.13;80.72;97793.78;4911553;28;108613;-71
2023/03/24 04:25:30;;;;;;;;;5.75;5.00;;;;;12.08;81.63;97784.44;4900473;28;103577;-71
2023/03/24 04:28:30;;;;;;;;;5.00;4.50;;;;;12.08;82.30;97789.03;4902820;28;103502;-72
2023/03/24 04:31:06;;;;;;;;;3.75;3.25;;;;;12.01;82.11;97785.63;4904700;28;102384;-72
2023/03/24 04:33:44;;;;;;;;;6.00;5.25;;;;;11.87;84.08;97784.97;4906784;28;108767;-71
2023/03/24 04:36:17;;;;;;;;;4.25;4.25;;;;;11.78;85.29;97780.09;4904751;28;104206;-72
2023/03/24 04:38:53;;;;;;;;;6.00;6.00;;;;;11.69;85.99;97778.72;4907358;28;102065;-71
2023/03/24 04:41:24;;;;;;;;;5.50;5.00;;;;;11.69;85.47;97789.56;4913564;28;102094;-72
2023/03/24 04:43:56;;;;;;;;;5.00;5.00;;;;;11.67;85.75;97792.47;4902928;28;104087;-72
2023/03/24 04:46:24;;;;;;;;;6.75;6.00;;;;;11.68;85.82;97790.59;4916671;28;102395;-72
2023/03/24 04:48:51;;;;;;;;;2.75;2.75;;;;;11.67;85.47;97786.22;4909278;28;104055;-72
2023/03/24 04:51:19;;;;;;;;;2.25;2.25;;;;;11.67;85.87;97789.78;4914045;28;103408;-72
2023/03/24 04:53:47;;;;;;;;;4.75;4.75;;;;;11.65;86.20;97789.19;4909860;28;104877;-72
2023/03/24 04:56:38;;;;;;;;;2.00;2.00;;;;;11.60;87.97;97786.34;4906963;28;102424;-72
2023/03/24 04:59:08;;;;;;;;;3.25;2.75;;;;;11.46;87.37;97774.84;4906707;28;102207;-71
2023/03/24 05:01:36;;;;;;;;;3.00;2.75;;;;;11.54;88.18;97776.41;4912727;28;102421;-71
2023/03/24 05:04:04;;;;;;;;;3.00;3.00;;;;;11.51;87.74;97783.09;4868624;28;103987;-72
2023/03/24 05:06:32;;;;;;;;;2.50;2.50;;;;;11.50;88.39;97786.88;4910172;28;102949;-71
2023/03/24 05:08:59;;;;;;;;;4.00;4.00;;;;;11.47;88.74;97784.63;4908932;28;102245;-72
2023/03/24 05:11:26;;;;;;;;;4.00;3.75;;;;;11.51;87.47;97785.81;4900762;28;102124;-72
2023/03/24 05:13:54;;;;;;;;;3.00;2.00;;;;;11.56;87.50;97790.56;4910598;28;103861;-72
2023/03/24 05:16:21;;;;;;;;;4.50;4.00;;;;;11.58;87.44;97789.25;4908505;28;101978;-72
2023/03/24 05:18:48;;;;;;;;;3.50;3.00;;;;;11.59;88.08;97790.91;4914888;28;102079;-72
2023/03/24 05:21:15;;;;;;;;;1.00;0.25;;;;;11.58;88.47;97783.84;4909684;28;101936;-72
2023/03/24 05:23:42;;;;;;;;;1.25;1.00;;;;;11.60;87.69;97794.47;4907849;28;104245;-72
2023/03/24 05:26:09;;;;;;;;;2.00;2.00;;;;;11.59;88.57;97785.50;4913165;28;101890;-72
2023/03/24 05:28:36;;;;;;;;;2.50;2.25;;;;;11.62;87.77;97785.03;4905865;28;106472;-72
2023/03/24 05:31:03;;;;;;;;;3.25;3.00;;;;;11.63;88.21;97777.75;4910431;28;102511;-72
2023/03/24 05:33:30;;;;;;;;;0.50;0.50;;;;;11.64;88.33;97780.22;4914245;28;104107;-73
2023/03/24 05:36:00;;;;;;;;;3.00;3.00;;;;;11.68;88.81;97794.13;4909573;28;102174;-72
2023/03/24 05:38:27;;;;;;;;;1.25;1.25;;;;;11.70;89.05;97785.78;4903658;28;102359;-72
2023/03/24 05:40:57;;;;;;;;;5.00;4.00;;;;;11.71;87.71;97782.03;4915100;28;102200;-72
2023/03/24 05:43:25;;;;;;;;;6.00;5.00;;;;;11.77;88.33;97775.72;4898095;28;104154;-73
2023/03/24 05:46:45;;;;;;;;;8.00;5.00;;;;;11.82;88.31;97779.41;4914849;28;102324;-72
2023/03/24 05:49:13;;;;;;;;;10.00;7.00;;;;;11.85;88.62;97773.53;4914347;28;101872;-72
2023/03/24 05:51:40;;;;;;;;;6.75;6.00;;;;;11.87;88.38;97781.44;4924975;28;102120;-73
2023/03/24 05:54:07;;;;;;;;;14.00;12.50;;;;;11.85;88.84;97778.09;4914221;28;104031;-72
2023/03/24 05:56:34;;;;;;;;;11.00;10.00;;;;;11.82;88.92;97773.16;4897895;28;102498;-73
2023/03/24 05:59:02;;;;;;;;;10.25;8.00;;;;;11.85;89.72;97762.69;4916871;28;102374;-72
2023/03/24 06:01:29;;;;;;;;;9.25;8.00;;;;;11.91;89.62;97778.03;4912790;28;102118;-72
2023/03/24 06:03:56;;;;;;;;;6.50;5.00;;;;;11.94;89.94;97774.03;4908201;28;104049;-73
2023/03/24 06:06:23;;;;;;;;;9.50;8.00;;;;;11.99;88.66;97766.03;4900133;28;102657;-73
2023/03/24 06:08:53;;;;;;;;;7.00;6.50;;;;;12.07;89.11;97771.94;4909974;28;102131;-73
2023/03/24 06:11:20;;;;;;;;;9.00;7.75;;;;;12.15;88.61;97767.28;4899201;28;101948;-73
2023/03/24 06:13:47;;;;;;;;;7.75;7.00;;;;;12.21;88.42;97767.16;4912345;28;104013;-71
2023/03/24 06:16:17;;;;;;;;;7.00;6.50;;;;;12.27;88.63;97771.66;4904784;28;102054;-71
2023/03/24 06:18:51;;;;;;;;;7.50;6.00;;;;;12.33;87.63;97770.75;4908475;28;102263;-71
2023/03/24 06:21:19;;;;;;;;;6.00;6.00;;;;;12.40;87.42;97768.75;4913185;28;102161;-72
2023/03/24 06:23:55;;;;;;;;;7.50;6.00;;;;;12.50;87.62;97771.72;4910056;28;103982;-72
2023/03/24 06:26:29;;;;;;;;;6.50;6.50;;;;;12.66;87.12;97774.78;4911174;28;103964;-72
2023/03/24 06:29:01;;;;;;;;;4.75;4.25;;;;;12.85;86.68;97762.78;4910963;28;102093;-72
2023/03/24 06:31:29;;;;;;;;;7.00;6.25;;;;;13.09;84.96;97767.16;4904512;28;102198;-72
2023/03/24 06:33:56;;;;;;;;;5.25;5.00;;;;;13.31;84.84;97765.50;4914326;28;103776;-72
2023/03/24 06:36:24;;;;;;;;;8.50;7.00;;;;;13.54;83.26;97761.06;4910881;28;103150;-73
2023/03/24 06:38:51;;;;;;;;;7.50;6.75;;;;;13.80;81.68;97763.22;4906077;28;103517;-72
2023/03/24 06:41:20;;;;;;;;;7.75;6.00;;;;;14.05;81.41;97769.13;4892826;28;102232;-72
2023/03/24 06:43:47;;;;;;;;;7.25;7.25;;;;;14.24;81.05;97772.47;4912856;28;104039;-72
2023/03/24 06:46:14;;;;;;;;;6.00;6.00;;;;;14.44;80.81;97761.16;4910419;28;110982;-72
2023/03/24 06:48:41;;;;;;;;;6.00;5.25;;;;;14.61;79.37;97759.28;4912588;28;102833;-72
2023/03/24 06:51:08;;;;;;;;;6.00;6.00;;;;;14.72;78.37;97763.84;4905202;28;102244;-72
2023/03/24 06:53:36;;;;;;;;;7.50;6.00;;;;;14.78;77.02;97762.81;4917155;28;104140;-72
2023/03/24 06:56:03;;;;;;;;;8.25;7.00;;;;;14.92;76.58;97766.84;4900021;28;103062;-76
2023/03/24 06:58:30;;;;;;;;;9.00;8.25;;;;;15.03;76.87;97760.50;4906107;28;103207;-73
2023/03/24 07:01:00;;;;;;;;;7.00;6.00;;;;;15.03;76.06;97760.50;4912481;28;103111;-73
2023/03/24 07:03:27;;;;;;;;;7.50;7.50;;;;;15.05;76.54;97758.34;4896954;28;104002;-73
2023/03/24 07:05:56;;;;;;;;;7.75;5.75;;;;;14.99;77.14;97753.91;4912400;28;102336;-73
2023/03/24 07:08:22;;;;;;;;;6.75;6.00;;;;;14.92;77.23;97753.25;4899635;28;102065;-73
2023/03/24 07:11:05;;;;;;;;;6.75;6.75;;;;;14.82;77.21;97753.06;4917558;28;102592;-73
2023/03/24 07:13:32;;;;;;;;;5.75;5.00;;;;;14.79;77.51;97753.59;4912508;28;104089;-72
2023/03/24 07:16:00;;;;;;;;;7.00;5.75;;;;;14.80;78.03;97752.53;4911813;28;102307;-71
2023/03/24 07:18:27;;;;;;;;;7.50;7.25;;;;;14.78;78.45;97757.38;4913013;28;102524;-73
2023/03/24 07:20:54;;;;;;;;;4.00;4.00;;;;;14.80;77.64;97752.53;4915170;28;102127;-73
2023/03/24 07:23:21;;;;;;;;;6.00;6.00;;;;;14.88;78.83;97756.72;4905423;28;104024;-73
2023/03/24 07:25:48;;;;;;;;;12.25;9.75;;;;;14.97;78.97;97747.88;4907896;28;102819;-72
2023/03/24 07:28:15;;;;;;;;;5.50;4.75;;;;;15.13;77.48;97748.91;4916166;28;103225;-73
2023/03/24 07:30:42;;;;;;;;;5.25;5.25;;;;;15.30;76.88;97748.88;4909506;28;102477;-75
2023/03/24 07:33:10;;;;;;;;;10.00;8.00;;;;;15.36;75.08;97742.41;4917116;28;104154;-73
2023/03/24 07:35:39;;;;;;;;;10.50;10.00;;;;;15.39;74.52;97741.94;4905240;28;102022;-73
2023/03/24 07:38:06;;;;;;;;;8.25;8.00;;;;;15.46;74.96;97731.66;4912216;28;102305;-78
2023/03/24 07:40:36;;;;;;;;;7.50;7.00;;;;;15.61;73.86;97740.88;4913868;28;102130;-73
2023/03/24 07:43:04;;;;;;;;;7.00;6.50;;;;;15.72;72.88;97743.72;4911850;28;104003;-73
2023/03/24 07:45:32;;;;;;;;;9.75;8.25;;;;;15.78;72.77;97742.69;4906974;28;102396;-73
2023/03/24 07:48:00;;;;;;;;;8.25;8.25;;;;;15.66;71.50;97737.41;4903622;28;102027;-73
2023/03/24 07:50:28;;;;;;;;;11.00;10.00;;;;;15.66;71.96;97742.84;4912684;28;102042;-73
2023/03/24 07:52:55;;;;;;;;;10.75;9.00;;;;;15.63;72.06;97718.81;4915574;28;103966;-73
2023/03/24 07:55:26;;;;;;;;;8.00;7.00;;;;;15.76;71.58;97731.25;4905356;28;102169;-73
2023/03/24 07:57:53;;;;;;;;;10.25;9.00;;;;;15.80;72.54;97733.22;4904301;28;102083;-73
2023/03/24 08:00:21;;;;;;;;;8.50;7.75;;;;;15.95;72.13;97725.16;4908428;28;102339;-73
2023/03/24 08:02:50;;;;;;;;;6.50;6.00;;;;;16.09;71.25;97731.03;4899434;28;104167;-73
2023/03/24 08:05:20;;;;;;;;;8.00;7.00;;;;;16.23;70.70;97726.81;4907843;28;102023;-72
2023/03/24 08:07:52;;;;;;;;;6.75;6.00;;;;;16.42;72.13;97719.09;4904354;28;102049;-73
2023/03/24 08:10:28;;;;;;;;;13.00;13.00;;;;;16.51;71.43;97722.97;4914715;28;101994;-73
2023/03/24 08:12:56;;;;;;;;;10.00;10.00;;;;;16.59;66.88;97725.25;4910166;28;103182;-73
2023/03/24 08:15:26;;;;;;;;;8.50;8.50;;;;;16.70;68.34;97723.44;4909037;28;102647;-73
2023/03/24 08:17:55;;;;;;;;;11.00;10.00;;;;;16.74;66.77;97714.47;4911349;28;101980;-73
2023/03/24 08:20:23;;;;;;;;;9.50;9.50;;;;;16.85;67.06;97707.16;4915692;28;102030;-73
2023/03/24 08:22:52;;;;;;;;;9.00;9.00;;;;;17.01;67.30;97713.53;4907779;28;104115;-73
2023/03/24 08:25:23;;;;;;;;;7.33;7.00;;;;;17.19;66.77;97708.47;4900410;28;105274;-72
2023/03/24 08:27:50;;;;;;;;;6.00;6.00;;;;;17.29;64.67;97710.44;4913823;28;102951;-73
2023/03/24 08:30:21;;;;;;;;;4.00;4.00;;;;;17.45;64.71;97701.22;4907329;28;102040;-72
2023/03/24 08:32:50;;;;;;;;;5.67;4.00;;;;;17.60;64.51;97704.03;4897316;28;104038;-72
2023/03/24 08:35:21;;;;;;;;;5.67;4.67;;;;;17.74;64.21;97693.44;4898143;28;102052;-72
2023/03/24 08:37:48;;;;;;;;;4.00;4.00;;;;;17.92;62.39;97694.84;4896711;28;102446;-72
2023/03/24 08:40:19;;;;;;;;;5.00;4.00;;;;;18.17;62.86;97692.13;4907881;28;102431;-73
2023/03/24 08:42:48;;;;;;;;;5.67;5.00;;;;;18.31;61.01;97693.25;4913968;28;104064;-72
2023/03/24 08:45:19;;;;;;;;;5.67;5.00;;;;;18.49;61.36;97689.97;4903592;28;102416;-72
2023/03/24 08:47:48;;;;;;;;;3.33;3.00;;;;;18.67;61.69;97692.19;4908108;28;102186;-72
2023/03/24 08:50:15;;;;;;;;;3.00;3.00;;;;;18.80;58.87;97676.28;4894341;28;102094;-72
2023/03/24 08:52:42;;;;;;;;;3.33;3.00;;;;;18.92;57.53;97676.78;4909872;28;103996;-72
2023/03/24 08:55:10;;;;;;;;;5.33;5.00;;;;;18.98;57.29;97679.25;4896605;28;102287;-73
2023/03/24 08:57:37;;;;;;;;;5.67;5.00;;;;;19.10;57.09;97667.97;4914532;28;103193;-72
2023/03/24 09:00:14;;;;;;;;;6.33;5.67;;;;;19.16;56.78;97667.69;4908617;28;102735;-73
2023/03/24 09:02:43;;;;;;;;;3.67;3.33;;;;;19.26;55.42;97660.53;4899118;28;108835;-73
2023/03/24 09:05:11;;;;;;;;;2.67;2.67;;;;;19.23;57.71;97661.91;4908930;28;101905;-73
2023/03/24 09:07:38;;;;;;;;;4.67;4.00;;;;;19.22;57.42;97659.47;4912779;28;102458;-73
2023/03/24 09:10:08;;;;;;;;;7.00;5.00;;;;;18.99;55.32;97655.44;4911812;28;102385;-73
2023/03/24 09:12:36;;;;;;;;;5.00;5.00;;;;;19.01;56.98;97666.91;4908219;28;103968;-73
2023/03/24 09:15:05;;;;;;;;;8.33;8.00;;;;;18.76;55.45;97658.75;4907021;28;102315;-73
2023/03/24 09:17:32;;;;;;;;;3.00;3.00;;;;;18.92;55.39;97643.91;4913812;28;103554;-72
2023/03/24 09:19:59;;;;;;;;;3.00;3.00;;;;;19.06;55.77;97643.06;4907753;28;102304;-72
2023/03/24 09:22:28;;;;;;;;;5.00;5.00;;;;;19.27;57.30;97632.03;4905981;28;103808;-73
2023/03/24 09:24:54;;;;;;;;;3.33;2.67;;;;;19.54;57.04;97636.03;4911081;28;102873;-72
2023/03/24 09:27:22;;;;;;;;;4.00;3.00;;;;;19.69;55.09;97637.06;4909524;28;102065;-73
2023/03/24 09:29:49;;;;;;;;;4.00;4.00;;;;;19.75;55.04;97638.69;4891783;28;102409;-72
2023/03/24 09:32:16;;;;;;;;;5.00;5.00;;;;;19.75;54.15;97622.22;4909791;28;104069;-72
2023/03/24 09:34:43;;;;;;;;;4.00;3.00;;;;;19.85;54.22;97624.91;4914632;28;102042;-72
2023/03/24 09:37:10;;;;;;;;;4.00;4.00;;;;;19.91;53.62;97621.84;4910183;28;102517;-72
2023/03/24 09:39:37;;;;;;;;;6.00;6.00;;;;;19.84;52.70;97628.75;4913175;28;102468;-73
2023/03/24 09:42:05;;;;;;;;;11.67;7.33;;;;;19.80;51.41;97627.69;4900671;28;104025;-72
2023/03/24 09:44:39;;;;;;;;;10.33;8.33;;;;;19.85;52.92;97620.25;4904180;28;102340;-71
2023/03/24 09:47:21;;;;;;;;;11.00;8.67;;;;;19.54;52.55;97638.00;4903506;28;101881;-72
2023/03/24 09:49:50;;;;;;;;;8.67;8.67;;;;;19.52;49.91;97630.03;4910649;28;102306;-71
2023/03/24 09:52:33;;;;;;;;;12.00;10.00;;;;;19.68;50.54;97619.00;4899359;28;103987;-73
2023/03/24 09:55:02;;;;;;;;;9.33;7.67;;;;;19.79;49.45;97615.88;4913144;28;102380;-72
2023/03/24 09:57:36;;;;;;;;;7.00;7.00;;;;;19.87;49.14;97609.78;4909015;28;102125;-72
2023/03/24 10:00:18;;;;;;;;;8.00;8.00;;;;;19.92;50.06;97598.78;4914280;28;102152;-72
2023/03/24 10:02:45;;;;;;;;;10.67;9.67;;;;;20.07;49.19;97597.03;4910132;28;109667;-72
2023/03/24 10:05:19;;;;;;;;;15.00;12.67;;;;;19.91;50.18;97601.81;4913737;28;102197;-71
2023/03/24 10:07:58;;;;;;;;;9.00;8.33;;;;;19.89;49.69;97599.38;4872754;28;102239;-72
2023/03/24 10:10:37;;;;;;;;;10.00;9.00;;;;;19.82;49.20;97598.84;4900444;28;102957;-73
2023/03/24 10:13:29;;;;;;;;;8.33;8.00;;;;;19.73;50.17;97600.56;4909574;28;104064;-72
2023/03/24 10:16:19;;;;;;;;;11.00;10.67;;;;;19.49;50.47;97594.97;4909296;28;102097;-72
2023/03/24 10:19:04;;;;;;;;;5.00;5.00;;;;;19.57;50.71;97599.03;4901688;28;102094;-72
2023/03/24 10:21:35;;;;;;;;;8.33;7.67;;;;;19.51;51.28;97559.00;4912803;28;102193;-73
2023/03/24 10:24:32;;;;;;;;;8.67;8.00;;;;;19.99;49.67;97587.50;4909992;28;104051;-73
2023/03/24 10:27:15;;;;;;;;;12.00;12.00;;;;;20.05;48.57;97583.59;4906090;28;102027;-73
2023/03/24 10:29:45;;;;;;;;;12.00;10.00;;;;;20.35;49.16;97574.31;4806582;28;102441;-73
2023/03/24 10:32:20;;;;;;;;;7.67;7.67;;;;;20.33;46.15;97588.31;4918071;28;102158;-73
2023/03/24 10:34:55;;;;;;;;;7.33;7.00;;;;;20.45;46.45;97585.19;4877439;28;108893;-73
2023/03/24 10:37:22;;;;;;;;;6.67;6.67;;;;;20.49;45.02;97581.56;4927962;28;101928;-72
2023/03/24 10:39:50;;;;;;;;;9.33;8.00;;;;;20.48;44.71;97585.44;4805332;28;104688;-72
2023/03/24 10:42:24;;;;;;;;;8.33;8.00;;;;;20.37;44.68;97580.31;4919476;28;103657;-73
2023/03/24 10:44:52;;;;;;;;;9.00;8.67;;;;;20.33;45.55;97580.09;4900001;28;104091;-73
2023/03/24 10:47:24;;;;;;;;;8.00;7.00;;;;;20.27;44.93;97572.97;4907517;28;102268;-72
2023/03/24 10:49:56;;;;;;;;;10.33;9.33;;;;;20.08;45.79;97580.28;4931354;28;101939;-73
2023/03/24 10:52:24;;;;;;;;;9.00;9.00;;;;;20.30;46.64;97577.94;4934608;28;102035;-73
2023/03/24 10:55:02;;;;;;;;;6.00;6.00;;;;;20.71;44.80;97577.53;4866977;28;104029;-73
2023/03/24 10:57:30;;;;;;;;;5.33;5.00;;;;;20.85;46.05;97568.28;4693282;28;102105;-73
2023/03/24 11:00:08;;;;;;;;;6.00;5.00;;;;;21.14;43.51;97564.69;4876341;28;102411;-73
2023/03/24 11:02:36;;;;;;;;;11.00;9.33;;;;;20.89;44.16;97568.53;4909419;28;102326;-73
2023/03/24 11:05:17;;;;;;;;;7.33;6.00;;;;;20.96;46.00;97562.66;4916654;28;104217;-73
2023/03/24 11:07:47;;;;;;;;;9.00;9.00;;;;;20.59;43.64;97558.69;4913664;28;102832;-73
2023/03/24 11:10:19;;;;;;;;;9.33;7.00;;;;;20.85;44.06;97567.47;4893666;28;109590;-73
2023/03/24 11:12:52;;;;;;;;;8.00;7.00;;;;;20.76;44.33;97560.97;4911333;28;102353;-73
2023/03/24 11:15:25;;;;;;;;;8.67;8.00;;;;;20.62;44.50;97560.03;4917116;28;108203;-73
2023/03/24 11:17:56;;;;;;;;;9.00;8.00;;;;;20.78;44.20;97556.84;4907438;28;102096;-72
2023/03/24 11:20:40;;;;;;;;;10.00;9.00;;;;;20.57;43.08;97557.34;4917633;28;102573;-72
2023/03/24 11:23:13;;;;;;;;;9.33;8.33;;;;;20.67;43.28;97558.03;4917270;28;102314;-73
2023/03/24 11:25:45;;;;;;;;;10.00;10.00;;;;;20.14;43.88;97546.19;4908941;28;104399;-73
2023/03/24 11:28:24;;;;;;;;;11.00;11.00;;;;;20.30;44.01;97552.41;4907850;28;102322;-73
2023/03/24 11:30:53;;;;;;;;;4.00;4.00;;;;;20.79;44.77;97541.16;4913743;28;101964;-72
2023/03/24 11:33:33;;;;;;;;;6.33;6.00;;;;;21.12;41.59;97528.41;4912690;28;102459;-72
2023/03/24 11:36:29;;;;;;;;;10.00;8.00;;;;;20.97;41.86;97536.84;4910279;28;104044;-73
2023/03/24 11:39:20;;;;;;;;;7.00;7.00;;;;;21.08;42.46;97530.06;4912244;28;102201;-71
2023/03/24 11:42:12;;;;;;;;;6.00;5.00;;;;;21.33;42.18;97525.09;4909604;28;102492;-72
2023/03/24 11:44:46;;;;;;;;;5.00;4.00;;;;;21.36;42.42;97531.94;4912137;28;103855;-72
2023/03/24 11:47:35;;;;;;;;;5.00;5.00;;;;;21.35;40.96;97522.03;4909103;28;104007;-73
2023/03/24 11:50:08;;;;;;;;;6.00;6.00;;;;;21.16;41.47;97510.22;4907005;28;102173;-74
2023/03/24 11:52:39;;;;;;;;;6.33;6.00;;;;;21.16;41.59;97521.22;4912090;28;107275;-73
2023/03/24 11:55:17;;;;;;;;;7.00;6.00;;;;;21.09;40.95;97505.06;4908630;28;102303;-73